Nearby METAR Reports

 

KOXC - Oxford/Waterbury, Connecticut, USA
Distance from station: SE 8mi, 12km
Updated: Wed, 05-May-2021 4:51pm EDT
Light rain, Mist, Overcast
Light rain, Mist, Overcast
 Wind from N
Wind: N 6 mph , 9 km/h
Temperature: 55°F , 13°C
Dew Point: 55°F , 13°C
Humidity: 100%
Barometer: 29.67 inHg , 1004.7 hPa
Summary: Light rain, Mist
Clouds: Overcast
Visibility: 5 miles , 8 km
Cloud details: Mostly cloudy 400 ft
Overcast 900 ft
2021/05/05 20:51 KOXC 052051Z 36005KT 5SM -RA BR BKN004 OVC009 13/13 A2967 RMK AO2 SLP061 P0008 60011 T01330133 53004
KDXR - Danbury, Connecticut, USA
Distance from station: SW 19mi, 30km
Updated: Wed, 05-May-2021 4:53pm EDT
Overcast
Overcast
 Wind from NNW
Wind: NNW 5 mph , 7 km/h
Temperature: 61°F , 16°C
Dew Point: 54°F , 12°C
Humidity: 77%
Barometer: 29.68 inHg , 1005.1 hPa
Clouds: Overcast
Visibility: 10 miles , 16 km
Cloud details: Overcast 1000 ft
2021/05/05 20:53 KDXR 052053Z 33004KT 10SM OVC010 16/12 A2968 RMK AO2 RAE28 CIG 008V012 SLP047 P0001 60013 T01560122 53002
 
KMMK - Meriden, Connecticut, USA
Distance from station: E 20mi, 33km
Updated: Wed, 05-May-2021 5:31pm EDT
Overcast
Overcast
 Wind from calm
Wind: Calm
Temperature: 55°F , 13°C
Dew Point: 54°F , 12°C
Humidity: 94%
Barometer: 29.67 inHg , 1004.7 hPa
Clouds: Overcast
Visibility: 10 miles , 16 km
Cloud details: Few Clouds 600 ft
Partly cloudy 1000 ft
Overcast 2900 ft
2021/05/05 21:31 KMMK 052131Z AUTO 00000KT 10SM FEW006 SCT010 OVC029 13/12 A2967 RMK AO2 RAE26 P0001 T01330117
KBDR - Bridgeport, Connecticut, USA
Distance from station: S 27mi, 44km
Updated: Wed, 05-May-2021 4:52pm EDT
Light rain, Overcast
Light rain, Overcast
 Wind from SSW
Wind: SSW 5 mph , 7 km/h
Temperature: 52°F , 11°C
Dew Point: 50°F , 10°C
Humidity: 94%
Barometer: 29.66 inHg , 1004.4 hPa
Summary: Light rain
Clouds: Overcast
Visibility: 10 miles , 16 km
Cloud details: Few Clouds 400 ft
Overcast 900 ft
2021/05/05 20:52 KBDR 052052Z 21004KT 10SM -RA FEW004 OVC009 11/10 A2966 RMK AO2 RAB1954 SLP045 P0003 60009 T01110100 52002
 
KHVN - New Haven/Tweed, Connecticut, USA
Distance from station: SE 27mi, 44km
Updated: Wed, 05-May-2021 4:53pm EDT
Light rain, Mist, Overcast
Light rain, Mist, Overcast
 Wind from SSW
Wind: SSW 3 mph , 6 km/h
Temperature: 54°F , 12°C
Dew Point: 52°F , 11°C
Humidity: 94%
Barometer: 29.67 inHg , 1004.7 hPa
Summary: Light rain, Mist
Clouds: Overcast
Visibility: 3 miles , 5 km
Cloud details: Mostly cloudy 400 ft
Overcast 900 ft
2021/05/05 20:53 KHVN 052053Z 21003KT 3SM -RA BR BKN004 OVC009 12/11 A2967 RMK AO2 RAB18E43B47 SLP045 P0001 60008 T01170106 55007
KHFD - Hartford/Brainar, Connecticut, USA
Distance from station: ENE 32mi, 52km
Updated: Wed, 05-May-2021 5:15pm EDT
Light rain, Mist, Overcast
Light rain, Mist, Overcast
 Wind from NNW
Wind: NNW 6 mph , 9 km/h
Temperature: 55°F , 13°C
Dew Point: 52°F , 11°C
Humidity: 88%
Barometer: 29.67 inHg , 1004.7 hPa
Summary: Light rain, Mist
Clouds: Overcast
Visibility: 2 miles , 3 km
Cloud details: Mostly cloudy 900 ft
Mostly cloudy 2400 ft
Overcast 3000 ft
2021/05/05 21:15 KHFD 052115Z 34005KT 2SM -RA BR BKN009 BKN024 OVC030 13/11 A2967 RMK AO2 P0000 T01330111
 
KPOU - Poughkeepsie, New York, USA
Distance from station: W 35mi, 56km
Updated: Wed, 05-May-2021 5:28pm EDT
Mist, Overcast
Mist, Overcast
 Wind from W
Wind: W 3 mph , 6 km/h
Temperature: 57°F , 14°C
Dew Point: 55°F , 13°C
Humidity: 94%
Barometer: 29.69 inHg , 1005.4 hPa
Summary: Mist
Clouds: Overcast
Visibility: 3 miles , 5 km
Cloud details: Few Clouds 700 ft
Mostly cloudy 1200 ft
Overcast 2100 ft
2021/05/05 21:28 KPOU 052128Z 28003KT 3SM BR FEW007 BKN012 OVC021 14/13 A2969 RMK AO2 T01440128
KBDL - Windsor Locks, Connecticut, USA
Distance from station: NE 38mi, 62km
Updated: Wed, 05-May-2021 5:24pm EDT
Light rain, Overcast
Light rain, Overcast
 Wind from N
Wind: N 3 mph , 6 km/h
Temperature: 55°F , 13°C
Dew Point: 52°F , 11°C
Humidity: 88%
Barometer: 29.67 inHg , 1004.7 hPa
Summary: Light rain
Clouds: Overcast
Visibility: 10 miles , 16 km
Cloud details: Mostly cloudy 700 ft
Mostly cloudy 2300 ft
Overcast 3600 ft
2021/05/05 21:24 KBDL 052124Z 36003KT 10SM -RA BKN007 BKN023 OVC036 13/11 A2967 RMK AO2 P0002 T01280111 $
 
KSNC - Chester, Connecticut, USA
Distance from station: ESE 39mi, 63km
Updated: Wed, 05-May-2021 5:35pm EDT
Light rain, Overcast
Light rain, Overcast
 Wind from NNW
Wind: NNW 5 mph , 7 km/h
Temperature: 55°F , 13°C
Dew Point: 55°F , 13°C
Humidity: 100%
Barometer: 29.67 inHg , 1004.7 hPa
Summary: Light rain
Clouds: Overcast
Visibility: 1 1/2 miles , 2.4 km
Cloud details: Mostly cloudy 300 ft
Overcast 1000 ft
2021/05/05 21:35 KSNC 052135Z AUTO 33004KT 1 1/2SM -RA BKN003 OVC010 13/13 A2967 RMK AO2
KHPN - White Plains, New York, USA
Distance from station: SW 42mi, 67km
Updated: Wed, 05-May-2021 4:56pm EDT
Mist, Overcast
Mist, Overcast
 Wind from WNW
Wind: WNW 8 mph , 13 km/h
Temperature: 57°F , 14°C
Dew Point: 54°F , 12°C
Humidity: 88%
Barometer: 29.67 inHg , 1004.7 hPa
Summary: Mist
Clouds: Overcast
Visibility: 2 1/2 miles , 4 km
Cloud details: Overcast 900 ft
2021/05/05 20:56 KHPN 052056Z 30007KT 2 1/2SM BR OVC009 14/12 A2967 RMK AO2 DZE02 CIG 006V013 SLP046 P0000 60011 T01390122 53006
 
KSWF - Newburgh/Stewart, New York, USA
Distance from station: W 45mi, 72km
Updated: Wed, 05-May-2021 4:45pm EDT
Mist, Overcast
Mist, Overcast
 Wind from ENE
Wind: ENE 9 mph , 15 km/h
Temperature: 57°F , 14°C
Dew Point: 57°F , 14°C
Humidity: 100%
Barometer: 29.69 inHg , 1005.4 hPa
Summary: Mist
Clouds: Overcast
Visibility: 5 miles , 8 km
Cloud details: Overcast 700 ft
2021/05/05 20:45 KSWF 052045Z 07008KT 5SM BR OVC007 14/14 A2969
KBAF - Westfield, Massachusetts, USA
Distance from station: NNE 50mi, 80km
Updated: Wed, 05-May-2021 5:15pm EDT
Light rain, Overcast
Light rain, Overcast
 Wind from NNE
Wind: NNE 3 mph , 6 km/h
Temperature: 54°F , 12°C
Dew Point: 54°F , 12°C
Humidity: 100%
Barometer: 29.67 inHg , 1004.7 hPa
Summary: Light rain
Clouds: Overcast
Visibility: 10 miles , 16 km
Cloud details: Few Clouds 600 ft
Mostly cloudy 1900 ft
Overcast 3800 ft
2021/05/05 21:15 KBAF 052115Z 02003KT 10SM -RA FEW006 BKN019 OVC038 12/12 A2967 RMK AO2 P0002 T01220117